Time;durP1;ratioP1;P1;durP2;ratioP2;P2;SDS_P1;SDS_P2;PMS_P1;PMS_P2;Temp;Humidity;BMP_temperature;BMP_pressure;BME280_temperature;BME280_humidity;BME280_pressure;Samples;Min_cycle;Max_cycle;Signal;HPM_P1;HPM_P2
2022/06/02 00:00:05;;;;;;;2.15;1.75;;;12.60;99.90;;;;;;5031020;28;20505;-74
2022/06/02 00:03:09;;;;;;;3.17;1.80;;;12.60;99.90;;;;;;5030200;28;20479;-74
2022/06/02 00:05:58;;;;;;;2.15;1.77;;;12.60;99.90;;;;;;5031597;28;20039;-74
2022/06/02 00:08:37;;;;;;;3.22;1.98;;;12.50;99.90;;;;;;5032471;28;20014;-73
2022/06/02 00:11:16;;;;;;;2.50;2.00;;;12.50;99.90;;;;;;5031304;28;20017;-74
2022/06/02 00:13:58;;;;;;;2.28;2.08;;;12.60;99.90;;;;;;5030936;28;20025;-75
2022/06/02 00:16:34;;;;;;;2.25;2.00;;;12.60;99.90;;;;;;5031055;28;20502;-74
2022/06/02 00:19:11;;;;;;;1.98;1.70;;;12.30;99.90;;;;;;5031932;28;20038;-72
2022/06/02 00:21:49;;;;;;;2.83;1.90;;;12.20;99.90;;;;;;5031232;28;20498;-74
2022/06/02 00:24:33;;;;;;;2.75;1.90;;;12.10;99.90;;;;;;5032169;28;20108;-73
2022/06/02 00:27:17;;;;;;;2.53;1.90;;;12.10;99.90;;;;;;5031885;28;20582;-73
2022/06/02 00:29:51;;;;;;;2.90;1.80;;;12.20;99.90;;;;;;5030382;28;20025;-73
2022/06/02 00:32:32;;;;;;;1.55;1.45;;;12.30;99.90;;;;;;5039049;22;20060;-74
2022/06/02 00:35:22;;;;;;;2.28;1.70;;;12.20;99.90;;;;;;5011855;28;20022;-77
2022/06/02 00:38:05;;;;;;;2.00;1.85;;;12.10;99.90;;;;;;5010954;28;20041;-75
2022/06/02 00:40:34;;;;;;;2.53;1.90;;;12.10;99.90;;;;;;5009757;28;20391;-73
2022/06/02 00:43:30;;;;;;;2.60;2.17;;;12.00;99.90;;;;;;5011934;28;20479;-73
2022/06/02 00:46:16;;;;;;;2.40;1.95;;;11.80;99.90;;;;;;5011881;28;20105;-73
2022/06/02 00:48:56;;;;;;;4.63;1.93;;;11.60;99.90;;;;;;5013626;28;20120;-73
2022/06/02 00:51:37;;;;;;;3.15;2.20;;;11.30;99.90;;;;;;5010955;28;20026;-73
2022/06/02 00:57:31;;;;;;;3.13;2.10;;;11.40;99.90;;;;;;5011820;28;20076;-73
2022/06/02 01:00:09;;;;;;;2.67;1.92;;;11.50;99.90;;;;;;5011623;28;20033;-74
2022/06/02 01:03:05;;;;;;;3.67;2.00;;;11.30;99.90;;;;;;5010981;28;20046;-74
2022/06/02 01:05:38;;;;;;;2.25;2.00;;;11.20;99.90;;;;;;5011628;28;20022;-76
2022/06/02 01:08:32;;;;;;;2.47;2.15;;;11.00;99.90;;;;;;5011680;28;20117;-74
2022/06/02 01:11:27;;;;;;;2.15;1.95;;;11.00;99.90;;;;;;5010887;28;20026;-77
2022/06/02 01:14:14;;;;;;;2.17;1.98;;;10.80;99.90;;;;;;5011456;28;20026;-75
2022/06/02 01:17:27;;;;;;;2.55;2.35;;;10.80;99.90;;;;;;5011596;28;20058;-74
2022/06/02 01:20:13;;;;;;;2.50;2.30;;;10.70;99.90;;;;;;5004212;28;20030;-74
2022/06/02 01:23:07;;;;;;;2.63;1.77;;;10.70;99.90;;;;;;5011287;28;20040;-74
2022/06/02 01:25:52;;;;;;;3.00;2.10;;;10.70;99.90;;;;;;5011476;28;20515;-74
2022/06/02 01:28:24;;;;;;;2.92;2.10;;;10.20;99.90;;;;;;5011307;28;20096;-75
2022/06/02 01:31:09;;;;;;;3.85;1.98;;;10.40;99.90;;;;;;5010419;28;20037;-76
2022/06/02 01:33:52;;;;;;;3.50;2.10;;;10.40;99.90;;;;;;5010929;28;20030;-75
2022/06/02 01:36:36;;;;;;;3.45;2.03;;;10.20;99.90;;;;;;4993668;28;20172;-76
2022/06/02 01:39:30;;;;;;;2.95;2.40;;;10.20;99.90;;;;;;5008704;28;20018;-74
2022/06/02 01:42:21;;;;;;;2.33;2.10;;;10.10;99.90;;;;;;4978815;28;20062;-75
2022/06/02 01:45:02;;;;;;;2.60;2.40;;;10.20;99.90;;;;;;5012771;28;20052;-77
2022/06/02 01:47:31;;;;;;;3.08;2.13;;;10.20;99.90;;;;;;5008367;28;20468;-76
2022/06/02 01:50:20;;;;;;;2.25;2.05;;;10.20;99.90;;;;;;5014782;28;20108;-74
2022/06/02 01:52:59;;;;;;;3.08;2.30;;;10.10;99.90;;;;;;4998635;28;20378;-74
2022/06/02 01:55:52;;;;;;;2.45;2.05;;;10.10;99.90;;;;;;5007657;28;20026;-74
2022/06/02 01:58:48;;;;;;;3.25;2.42;;;10.10;99.90;;;;;;5014538;28;20030;-74
2022/06/02 02:01:27;;;;;;;3.58;2.15;;;10.10;99.90;;;;;;5013996;28;20026;-76
2022/06/02 02:04:23;;;;;;;4.82;2.22;;;10.20;99.90;;;;;;5014813;28;20575;-76
2022/06/02 02:07:04;;;;;;;4.50;2.70;;;10.20;99.90;;;;;;5014247;28;20030;-75
2022/06/02 02:09:51;;;;;;;2.65;2.20;;;10.00;99.90;;;;;;5011935;28;22036;-75
2022/06/02 02:12:32;;;;;;;2.78;2.33;;;9.90;99.90;;;;;;4998760;28;20026;-76
2022/06/02 02:15:12;;;;;;;3.50;2.90;;;9.70;99.90;;;;;;4994559;28;20018;-75
2022/06/02 02:18:14;;;;;;;3.67;2.60;;;9.40;99.90;;;;;;5000497;28;20029;-77
2022/06/02 02:21:17;;;;;;;2.80;2.45;;;9.30;99.90;;;;;;5015768;28;20095;-74
2022/06/02 02:23:42;;;;;;;4.75;2.65;;;9.60;99.90;;;;;;5015269;28;20029;-74
2022/06/02 02:26:14;;;;;;;2.90;2.60;;;9.70;99.90;;;;;;5014021;28;20030;-74
2022/06/02 02:28:55;;;;;;;2.67;2.47;;;9.70;99.90;;;;;;5014204;28;20430;-74
2022/06/02 02:31:47;;;;;;;3.42;2.60;;;9.60;99.90;;;;;;5013695;28;20034;-75
2022/06/02 02:34:48;;;;;;;3.08;2.67;;;9.40;99.90;;;;;;5014392;28;20050;-75
2022/06/02 02:37:24;;;;;;;5.50;2.90;;;9.40;99.90;;;;;;5014352;28;20014;-74
2022/06/02 02:39:59;;;;;;;3.17;2.75;;;9.60;99.90;;;;;;5013987;28;20030;-74
2022/06/02 02:42:41;;;;;;;3.80;2.83;;;9.80;99.90;;;;;;5002842;28;20113;-74
2022/06/02 02:45:13;;;;;;;3.20;2.90;;;9.70;99.90;;;;;;5014144;28;20084;-75
2022/06/02 02:47:44;;;;;;;3.13;2.83;;;9.60;99.90;;;;;;5013883;28;20030;-74
2022/06/02 02:50:33;;;;;;;3.20;2.90;;;9.60;99.90;;;;;;5013810;28;20021;-75
2022/06/02 02:52:58;;;;;;;5.25;2.95;;;9.40;99.90;;;;;;5013556;28;20022;-74
2022/06/02 02:56:06;;;;;;;3.80;2.83;;;9.50;99.90;;;;;;5012472;28;20096;-76
2022/06/02 02:58:48;;;;;;;3.28;2.97;;;9.40;99.90;;;;;;4949164;28;20525;-75
2022/06/02 03:01:27;;;;;;;3.72;2.90;;;9.40;99.90;;;;;;5012889;28;20038;-74
2022/06/02 03:04:11;;;;;;;2.97;2.70;;;9.50;99.90;;;;;;5012304;28;20487;-74
2022/06/02 03:06:40;;;;;;;3.25;2.95;;;9.60;99.90;;;;;;5013546;28;20029;-75
2022/06/02 03:09:13;;;;;;;3.03;2.72;;;9.50;99.90;;;;;;5013435;28;20088;-74
2022/06/02 03:11:51;;;;;;;2.92;2.63;;;9.60;99.90;;;;;;5012779;28;20062;-74
2022/06/02 03:14:48;;;;;;;3.83;3.25;;;9.70;99.90;;;;;;5013222;28;20022;-75
2022/06/02 03:17:32;;;;;;;;;;;9.50;99.90;;;;;;5013812;28;20049;-74
2022/06/02 03:20:08;;;;;;;4.93;3.30;;;9.20;99.90;;;;;;5013283;28;19906;-73
2022/06/02 03:22:36;;;;;;;4.47;3.20;;;8.90;99.90;;;;;;5011269;28;20029;-73
2022/06/02 03:25:13;;;;;;;4.35;3.05;;;8.60;99.90;;;;;;5013078;28;20033;-74
2022/06/02 03:27:49;;;;;;;5.78;2.90;;;8.60;99.90;;;;;;5013113;28;20068;-74
2022/06/02 03:30:21;;;;;;;3.33;3.03;;;8.60;99.90;;;;;;5012211;28;20049;-74
2022/06/02 03:33:15;;;;;;;10.75;4.00;;;8.50;99.90;;;;;;5011770;28;20064;-74
2022/06/02 03:36:06;;;;;;;3.70;3.40;;;8.50;99.90;;;;;;5011581;28;20483;-74
2022/06/02 03:38:50;;;;;;;3.70;3.17;;;8.80;99.90;;;;;;5012919;28;20032;-73
2022/06/02 03:41:35;;;;;;;3.30;2.85;;;8.70;99.90;;;;;;5010956;28;20026;-73
2022/06/02 03:44:26;;;;;;;4.20;3.20;;;8.60;99.90;;;;;;5012830;28;20022;-73
2022/06/02 03:47:05;;;;;;;3.45;3.08;;;8.70;99.90;;;;;;5012785;28;20511;-74
2022/06/02 03:49:49;;;;;;;4.28;3.13;;;8.70;99.90;;;;;;5011210;28;20399;-74
2022/06/02 03:52:39;;;;;;;4.63;3.28;;;8.70;99.90;;;;;;5000952;28;20360;-74
2022/06/02 03:55:16;;;;;;;3.67;3.38;;;8.60;99.90;;;;;;5012631;28;20033;-74
2022/06/02 03:58:10;;;;;;;3.70;3.28;;;8.60;99.90;;;;;;5011018;28;20484;-73
2022/06/02 04:00:52;;;;;;;4.60;3.10;;;8.60;99.90;;;;;;5011839;28;20498;-73
2022/06/02 04:03:45;;;;;;;6.72;3.05;;;8.60;99.90;;;;;;5012178;28;20033;-75
2022/06/02 04:06:41;;;;;;;5.45;3.10;;;8.60;99.90;;;;;;5012519;28;20466;-75
2022/06/02 04:09:52;;;;;;;3.47;3.10;;;8.80;99.90;;;;;;5012621;28;20483;-75
2022/06/02 04:15:47;;;;;;;3.50;3.20;;;9.00;99.90;;;;;;4985224;28;20060;-75
2022/06/02 04:18:28;;;;;;;4.05;3.33;;;8.90;99.90;;;;;;5011014;28;20498;-75
2022/06/02 04:20:56;;;;;;;3.40;3.10;;;9.00;99.90;;;;;;5011538;28;20446;-75
2022/06/02 04:23:59;;;;;;;4.68;2.88;;;9.10;99.90;;;;;;5012059;28;20487;-75
2022/06/02 04:26:45;;;;;;;3.40;3.10;;;9.40;99.90;;;;;;5012272;28;20072;-76
2022/06/02 04:29:30;;;;;;;;;;;9.50;99.90;;;;;;5012707;28;20495;-76
2022/06/02 04:32:11;;;;;;;3.65;3.20;;;9.20;99.90;;;;;;4996514;28;19924;-76
2022/06/02 04:35:15;;;;;;;3.42;3.10;;;9.30;99.90;;;;;;5012760;28;20104;-77
2022/06/02 04:38:05;;;;;;;3.40;3.05;;;9.40;99.90;;;;;;5012703;28;20022;-77
2022/06/02 04:40:33;;;;;;;4.88;4.30;;;9.50;99.90;;;;;;5011394;28;20021;-75
2022/06/02 04:43:10;;;;;;;3.15;2.72;;;9.80;99.90;;;;;;5011810;28;20347;-76
2022/06/02 04:45:59;;;;;;;4.72;3.28;;;10.10;99.90;;;;;;5011122;28;20030;-75
2022/06/02 04:48:27;;;;;;;4.20;2.72;;;10.10;99.90;;;;;;5011823;28;20076;-76
2022/06/02 04:51:12;;;;;;;3.90;2.80;;;10.10;99.90;;;;;;5010817;28;20025;-76
2022/06/02 04:53:45;;;;;;;2.97;2.78;;;10.20;99.90;;;;;;4992344;28;20030;-76
2022/06/02 04:56:38;;;;;;;3.78;2.85;;;10.30;99.90;;;;;;5007748;28;20097;-76
2022/06/02 04:59:23;;;;;;;4.63;2.90;;;10.40;99.90;;;;;;4982285;28;20117;-76
2022/06/02 05:02:07;;;;;;;3.30;2.90;;;10.20;99.90;;;;;;4987175;28;20112;-76
2022/06/02 05:04:45;;;;;;;3.20;2.90;;;10.70;99.90;;;;;;4993070;28;20408;-75
2022/06/02 05:07:53;;;;;;;5.07;3.20;;;10.70;99.90;;;;;;5004303;28;20412;-75
2022/06/02 05:10:45;;;;;;;4.22;2.92;;;10.60;99.90;;;;;;4993524;28;20022;-75
2022/06/02 05:13:26;;;;;;;3.08;2.88;;;10.60;99.90;;;;;;5011753;28;20025;-76
2022/06/02 05:16:24;;;;;;;4.13;2.90;;;10.60;99.90;;;;;;4983185;28;20037;-75
2022/06/02 05:19:22;;;;;;;3.40;3.10;;;10.80;99.90;;;;;;5002496;28;20098;-76
2022/06/02 05:22:10;;;;;;;3.58;3.28;;;11.00;99.90;;;;;;5006701;28;20487;-76
2022/06/02 05:25:06;;;;;;;4.63;2.90;;;11.20;99.90;;;;;;4992474;28;20033;-76
2022/06/02 05:27:43;;;;;;;3.08;2.53;;;11.40;99.90;;;;;;5002424;28;20050;-76
2022/06/02 05:30:34;;;;;;;2.90;2.70;;;11.60;99.90;;;;;;5013826;28;20108;-75
2022/06/02 05:33:11;;;;;;;4.47;3.22;;;11.60;99.90;;;;;;4989651;28;20025;-76
2022/06/02 05:36:04;;;;;;;3.00;2.75;;;11.80;99.90;;;;;;5002207;28;20084;-76
2022/06/02 05:38:59;;;;;;;3.88;2.75;;;11.70;99.90;;;;;;5001893;28;20394;-76
2022/06/02 05:41:41;;;;;;;3.97;3.00;;;11.90;99.90;;;;;;5014721;28;20061;-75
2022/06/02 05:44:34;;;;;;;3.03;2.75;;;12.10;99.90;;;;;;5008017;28;20095;-75
2022/06/02 05:47:40;;;;;;;4.88;3.20;;;12.00;99.90;;;;;;5002020;28;20030;-75
2022/06/02 05:50:22;;;;;;;3.88;3.03;;;12.00;99.90;;;;;;5010945;28;20073;-75
2022/06/02 05:53:13;;;;;;;3.30;3.00;;;11.60;99.90;;;;;;5014913;28;20064;-75
2022/06/02 05:56:08;;;;;;;4.18;3.28;;;11.60;99.90;;;;;;4991575;28;20013;-75
2022/06/02 05:58:41;;;;;;;3.30;3.00;;;11.80;99.90;;;;;;4995354;28;20369;-75
2022/06/02 06:01:22;;;;;;;3.70;3.30;;;12.00;99.90;;;;;;5010528;28;20037;-75
2022/06/02 06:04:02;;;;;;;3.97;3.58;;;12.10;99.90;;;;;;5014802;28;20030;-76
2022/06/02 06:06:28;;;;;;;3.95;3.55;;;12.10;99.90;;;;;;5002172;28;20021;-75
2022/06/02 06:09:18;;;;;;;5.22;3.60;;;12.20;99.90;;;;;;5002931;28;20037;-75
2022/06/02 06:12:24;;;;;;;3.70;3.40;;;11.90;99.90;;;;;;4987176;28;20033;-72
2022/06/02 06:15:06;;;;;;;3.55;3.25;;;12.00;99.90;;;;;;5004124;28;20053;-75
2022/06/02 06:17:40;;;;;;;5.35;3.33;;;12.10;99.90;;;;;;5010240;28;20484;-76
2022/06/02 06:20:43;;;;;;;4.07;3.67;;;12.10;99.90;;;;;;4989586;28;20068;-76
2022/06/02 06:23:27;;;;;;;3.72;3.35;;;12.40;99.90;;;;;;5004506;28;20037;-76
2022/06/02 06:26:04;;;;;;;3.88;3.20;;;12.30;99.90;;;;;;4991163;28;20037;-76
2022/06/02 06:28:40;;;;;;;4.85;3.63;;;12.60;99.90;;;;;;5008233;28;20030;-76
2022/06/02 06:31:15;;;;;;;3.45;3.15;;;12.70;99.90;;;;;;5004937;28;20038;-75
2022/06/02 06:33:57;;;;;;;6.85;3.20;;;12.70;99.90;;;;;;5008572;28;20018;-74
2022/06/02 06:36:57;;;;;;;3.72;3.03;;;12.70;99.90;;;;;;5006925;28;20076;-75
2022/06/02 06:39:52;;;;;;;3.45;3.00;;;13.00;99.90;;;;;;4986919;28;20105;-76
2022/06/02 06:42:36;;;;;;;3.33;3.03;;;13.20;99.90;;;;;;4991932;28;20121;-75
2022/06/02 06:45:29;;;;;;;3.70;2.97;;;13.20;99.90;;;;;;4996334;28;20018;-77
2022/06/02 06:48:39;;;;;;;3.30;3.00;;;13.50;99.90;;;;;;5008261;28;20438;-76
2022/06/02 06:51:17;;;;;;;3.28;2.95;;;13.60;99.90;;;;;;4999247;28;20077;-76
2022/06/02 06:53:53;;;;;;;3.00;2.60;;;13.80;99.90;;;;;;5013816;28;20072;-75
2022/06/02 06:56:44;;;;;;;4.45;2.63;;;14.10;99.90;;;;;;4996258;28;20076;-76
2022/06/02 06:59:27;;;;;;;3.80;2.58;;;14.20;99.90;;;;;;5013744;28;20026;-75
2022/06/02 07:02:01;;;;;;;3.80;2.75;;;14.10;99.90;;;;;;5002344;28;20106;-76
2022/06/02 07:05:01;;;;;;;2.50;2.10;;;14.00;99.90;;;;;;4992773;28;20022;-76
2022/06/02 07:07:53;;;;;;;2.67;2.38;;;14.40;99.90;;;;;;5001774;28;20048;-75
2022/06/02 07:10:39;;;;;;;2.30;2.10;;;14.50;99.90;;;;;;5001778;28;20073;-75
2022/06/02 07:13:22;;;;;;;3.10;2.28;;;14.60;99.90;;;;;;5000055;28;20600;-76
2022/06/02 07:16:00;;;;;;;3.05;2.65;;;14.70;99.90;;;;;;5010610;28;20504;-76
2022/06/02 07:18:55;;;;;;;2.30;2.17;;;14.80;99.90;;;;;;5004774;28;20053;-76
2022/06/02 07:21:43;;;;;;;2.88;2.13;;;14.70;99.90;;;;;;4989115;28;20022;-76
2022/06/02 07:24:46;;;;;;;3.60;2.58;;;14.80;99.90;;;;;;5008647;28;20026;-76
2022/06/02 07:27:31;;;;;;;3.33;3.00;;;14.90;99.90;;;;;;5009990;28;20031;-75
2022/06/02 07:30:16;;;;;;;3.53;2.85;;;15.20;99.90;;;;;;5013134;28;20034;-75
2022/06/02 07:33:03;;;;;;;3.42;2.40;;;15.10;99.90;;;;;;5001935;28;20030;-75
2022/06/02 07:35:39;;;;;;;2.78;2.45;;;15.10;99.90;;;;;;4998712;28;20049;-76
2022/06/02 07:38:42;;;;;;;4.32;2.40;;;15.30;99.90;;;;;;5001891;28;20542;-75
2022/06/02 07:41:17;;;;;;;3.75;2.30;;;15.40;99.90;;;;;;5003657;28;20172;-75
2022/06/02 07:44:04;;;;;;;3.13;2.70;;;15.30;99.90;;;;;;5012799;28;20049;-76
2022/06/02 07:46:44;;;;;;;5.43;2.70;;;15.10;99.90;;;;;;5012856;28;20038;-75
2022/06/02 07:49:28;;;;;;;2.53;2.33;;;15.20;99.90;;;;;;5012905;28;20395;-75
2022/06/02 07:52:19;;;;;;;3.38;3.00;;;15.50;99.90;;;;;;4999631;28;20037;-75
2022/06/02 07:55:18;;;;;;;3.25;2.60;;;15.70;99.90;;;;;;4972885;28;20571;-76
2022/06/02 07:58:08;;;;;;;4.07;2.50;;;15.80;99.90;;;;;;4982168;28;20526;-76
2022/06/02 08:01:00;;;;;;;3.13;2.83;;;16.00;99.90;;;;;;5000315;28;20019;-75
2022/06/02 08:03:45;;;;;;;3.78;2.30;;;15.80;99.90;;;;;;4995231;28;20648;-76
2022/06/02 08:06:32;;;;;;;2.40;2.20;;;15.80;99.90;;;;;;4999195;28;20018;-74
2022/06/02 08:09:21;;;;;;;2.85;2.53;;;16.20;99.90;;;;;;5012547;28;20491;-76
2022/06/02 08:12:04;;;;;;;4.25;2.83;;;16.30;99.90;;;;;;5000900;28;20030;-75
2022/06/02 08:14:48;;;;;;;3.00;2.60;;;16.20;99.90;;;;;;5012468;28;20022;-76
2022/06/02 08:17:21;;;;;;;3.28;2.50;;;16.10;99.90;;;;;;4999468;28;20034;-76
2022/06/02 08:20:06;;;;;;;3.22;2.25;;;16.20;99.90;;;;;;5004825;28;20609;-76
2022/06/02 08:22:43;;;;;;;2.88;2.28;;;16.40;99.90;;;;;;4998537;28;20029;-75
2022/06/02 08:25:10;;;;;;;;;;;16.00;99.90;;;;;;4999555;28;20030;-76
2022/06/02 08:28:07;;;;;;;2.53;2.33;;;16.20;99.90;;;;;;4987304;28;19906;-76
2022/06/02 08:30:41;;;;;;;3.08;2.78;;;16.30;99.90;;;;;;5009499;28;20034;-77
2022/06/02 08:33:45;;;;;;;2.08;1.98;;;16.30;99.90;;;;;;4982499;28;20065;-76
2022/06/02 08:36:26;;;;;;;3.88;2.30;;;16.30;99.90;;;;;;5003101;28;20026;-76
2022/06/02 08:39:16;;;;;;;1.60;1.30;;;16.30;99.90;;;;;;5011461;28;20022;-76
2022/06/02 08:42:02;;;;;;;1.70;1.60;;;16.30;99.90;;;;;;4993997;28;20033;-76
2022/06/02 08:45:04;;;;;;;1.88;1.70;;;16.50;99.90;;;;;;4987363;28;20030;-76
2022/06/02 08:48:08;;;;;;;1.60;1.38;;;16.40;99.90;;;;;;5003760;28;20037;-76
2022/06/02 08:50:43;;;;;;;2.17;1.95;;;16.80;99.90;;;;;;5000756;28;20022;-75
2022/06/02 08:53:15;;;;;;;1.80;1.70;;;17.00;99.90;;;;;;5012313;28;20026;-76
2022/06/02 08:55:59;;;;;;;2.13;1.92;;;17.20;99.90;;;;;;5011865;28;20030;-76
2022/06/02 08:59:04;;;;;;;2.60;2.00;;;16.90;99.90;;;;;;4978789;28;20023;-76
2022/06/02 09:02:03;;;;;;;3.15;1.80;;;17.30;99.90;;;;;;5006371;28;20075;-76
2022/06/02 09:04:47;;;;;;;2.33;2.13;;;16.70;99.90;;;;;;4981189;28;20047;-77
2022/06/02 09:07:33;;;;;;;2.38;1.95;;;16.90;99.90;;;;;;4982166;28;20039;-76
2022/06/02 09:10:22;;;;;;;;;;;17.30;99.90;;;;;;4983627;28;20053;-77
2022/06/02 09:13:17;;;;;;;3.58;2.40;;;17.60;99.90;;;;;;4961198;28;19906;-77
2022/06/02 09:16:17;;;;;;;4.18;2.25;;;17.90;99.90;;;;;;5009620;28;20472;-76
2022/06/02 09:19:10;;;;;;;2.42;1.90;;;17.60;99.90;;;;;;4987920;28;20022;-76
2022/06/02 09:21:53;;;;;;;2.45;1.60;;;17.90;99.90;;;;;;5000832;28;20081;-76
2022/06/02 09:24:27;;;;;;;2.25;1.98;;;17.70;99.90;;;;;;4987753;28;20085;-77
2022/06/02 09:27:24;;;;;;;2.50;2.30;;;17.80;99.90;;;;;;4987747;28;20030;-76
2022/06/02 09:29:59;;;;;;;2.63;1.70;;;18.00;99.90;;;;;;4985708;28;20121;-76
2022/06/02 09:33:33;;;;;;;1.70;1.60;;;17.90;99.90;;;;;;4979960;28;20084;-77
2022/06/02 09:36:08;;;;;;;2.17;1.40;;;18.20;99.90;;;;;;4991814;28;20061;-76
2022/06/02 09:38:47;;;;;;;2.28;1.70;;;18.20;99.90;;;;;;5003660;28;20033;-76
2022/06/02 09:41:47;;;;;;;1.95;1.85;;;18.60;99.90;;;;;;4999263;28;20026;-76
2022/06/02 09:44:23;;;;;;;2.88;1.70;;;18.60;99.90;;;;;;5001587;28;20041;-75
2022/06/02 09:47:16;;;;;;;2.38;1.85;;;18.60;99.90;;;;;;5007113;28;20027;-77
2022/06/02 09:49:45;;;;;;;2.35;1.70;;;18.60;99.90;;;;;;4988903;28;20030;-76
2022/06/02 09:52:22;;;;;;;3.30;1.88;;;18.60;99.90;;;;;;5010873;28;20046;-76
2022/06/02 09:55:12;;;;;;;3.70;1.95;;;18.80;99.90;;;;;;5007247;28;20541;-77
2022/06/02 09:57:58;;;;;;;1.58;1.48;;;18.50;99.90;;;;;;4988010;28;20026;-76
2022/06/02 10:01:08;;;;;;;2.80;1.90;;;18.50;99.90;;;;;;4993222;28;20050;-76
2022/06/02 10:04:00;;;;;;;2.28;1.90;;;18.00;99.90;;;;;;4992659;28;20041;-76
2022/06/02 10:07:01;;;;;;;5.50;1.92;;;18.30;99.90;;;;;;5008468;28;20023;-76
2022/06/02 10:10:09;;;;;;;2.22;1.95;;;18.80;99.90;;;;;;4990651;28;20030;-77
2022/06/02 10:12:56;;;;;;;;;;;18.80;99.90;;;;;;4990591;28;20022;-76
2022/06/02 10:15:50;;;;;;;1.98;1.60;;;19.10;99.70;;;;;;4990501;28;19906;-77
2022/06/02 10:18:34;;;;;;;2.10;1.73;;;19.10;99.60;;;;;;5005335;28;20026;-76
2022/06/02 10:21:16;;;;;;;1.58;1.48;;;18.80;99.80;;;;;;5008282;28;20034;-75
2022/06/02 10:24:04;;;;;;;2.33;1.42;;;19.40;98.80;;;;;;4990573;28;20030;-75
2022/06/02 10:27:03;;;;;;;1.65;1.55;;;19.20;99.70;;;;;;5005991;28;20029;-77
2022/06/02 10:30:03;;;;;;;3.60;1.80;;;19.30;99.90;;;;;;5004184;28;20026;-76
2022/06/02 10:32:41;;;;;;;2.30;1.60;;;19.20;99.80;;;;;;5001286;28;20480;-76
2022/06/02 10:35:31;;;;;;;1.85;1.50;;;19.40;99.90;;;;;;4998530;28;20033;-76
2022/06/02 10:38:16;;;;;;;1.85;1.40;;;19.80;99.90;;;;;;4994809;28;20022;-76
2022/06/02 10:41:08;;;;;;;3.90;1.60;;;19.50;99.00;;;;;;4976728;28;20029;-76
2022/06/02 10:44:01;;;;;;;2.78;1.38;;;20.10;99.90;;;;;;5012835;28;20033;-76
2022/06/02 10:46:45;;;;;;;3.30;1.40;;;20.40;99.90;;;;;;4998739;28;20553;-77
2022/06/02 10:49:33;;;;;;;2.92;1.55;;;20.90;98.40;;;;;;5005326;28;20539;-77
2022/06/02 10:52:30;;;;;;;1.55;1.40;;;20.40;98.00;;;;;;5001391;28;20030;-77
2022/06/02 10:55:26;;;;;;;1.50;1.40;;;20.10;98.30;;;;;;5010278;28;20068;-77
2022/06/02 10:58:30;;;;;;;2.00;1.40;;;19.40;97.70;;;;;;5013799;28;20579;-76
2022/06/02 11:01:25;;;;;;;2.65;1.40;;;20.40;97.70;;;;;;5012647;28;20273;-75
2022/06/02 11:04:13;;;;;;;2.50;1.80;;;20.70;98.00;;;;;;5013618;28;20632;-75
2022/06/02 11:07:18;;;;;;;2.80;1.40;;;21.00;97.20;;;;;;5002458;28;20120;-75
2022/06/02 11:09:49;;;;;;;2.35;1.58;;;21.30;98.20;;;;;;5003329;28;20021;-76
2022/06/02 11:12:30;;;;;;;1.98;1.52;;;20.60;98.60;;;;;;5012938;28;20531;-75
2022/06/02 11:15:23;;;;;;;2.10;1.50;;;20.90;97.80;;;;;;5002806;28;20030;-76
2022/06/02 11:18:22;;;;;;;3.17;1.20;;;21.30;98.00;;;;;;5009824;28;20435;-77
2022/06/02 11:21:25;;;;;;;1.33;1.23;;;21.90;97.10;;;;;;5004418;28;20109;-76
2022/06/02 11:24:28;;;;;;;2.00;1.30;;;21.20;95.60;;;;;;5010172;28;20495;-76
2022/06/02 11:27:33;;;;;;;2.15;1.35;;;20.80;95.50;;;;;;5010138;28;20026;-77
2022/06/02 11:30:11;;;;;;;1.40;1.30;;;21.10;94.70;;;;;;5013133;28;20026;-77
2022/06/02 11:33:17;;;;;;;1.98;1.20;;;20.90;94.50;;;;;;5013353;28;20027;-77
2022/06/02 11:36:20;;;;;;;1.83;1.42;;;20.30;94.40;;;;;;5014969;28;20498;-76
2022/06/02 11:38:49;;;;;;;2.72;1.23;;;20.60;95.20;;;;;;5004970;28;20029;-75
2022/06/02 11:41:22;;;;;;;1.40;1.30;;;20.60;95.70;;;;;;5012091;28;20380;-75
2022/06/02 11:43:58;;;;;;;1.73;1.13;;;21.20;95.20;;;;;;4993118;28;20022;-75
2022/06/02 11:46:23;;;;;;;;;;;21.00;94.40;;;;;;5003214;28;20671;-76
2022/06/02 11:49:10;;;;;;;1.87;1.13;;;21.10;94.30;;;;;;5010429;28;19948;-76
2022/06/02 11:52:06;;;;;;;1.20;1.10;;;21.90;94.20;;;;;;5005769;28;20038;-75
2022/06/02 11:55:05;;;;;;;1.80;1.10;;;21.60;95.20;;;;;;4991002;28;20029;-75
2022/06/02 11:57:57;;;;;;;1.15;1.05;;;21.20;95.00;;;;;;5006243;28;20072;-75
2022/06/02 12:00:45;;;;;;;2.05;1.10;;;20.90;94.70;;;;;;5003655;28;20034;-75
2022/06/02 12:03:38;;;;;;;1.20;1.10;;;21.80;93.70;;;;;;4993642;28;20040;-76
2022/06/02 12:06:41;;;;;;;1.95;1.30;;;21.90;94.60;;;;;;4995415;28;20373;-76
2022/06/02 12:09:25;;;;;;;0.90;0.90;;;21.70;93.50;;;;;;4996498;28;20060;-75
2022/06/02 12:12:11;;;;;;;1.17;1.08;;;22.00;93.90;;;;;;4998540;28;20018;-76
2022/06/02 12:15:09;;;;;;;1.00;0.90;;;22.70;93.20;;;;;;5006988;28;20101;-77
2022/06/02 12:17:44;;;;;;;1.30;0.90;;;23.00;92.70;;;;;;5001978;28;20122;-76
2022/06/02 12:20:32;;;;;;;3.05;0.98;;;22.90;92.90;;;;;;5010797;28;20052;-77
2022/06/02 12:23:16;;;;;;;2.35;1.08;;;22.60;92.00;;;;;;5001058;28;20383;-76
2022/06/02 12:25:55;;;;;;;1.77;1.00;;;23.50;92.10;;;;;;5010724;28;20108;-76
2022/06/02 12:28:41;;;;;;;1.48;1.20;;;23.30;91.20;;;;;;5012536;28;20396;-76
2022/06/02 12:31:27;;;;;;;1.10;1.05;;;23.00;91.80;;;;;;5004178;28;20510;-76
2022/06/02 12:34:06;;;;;;;1.55;1.00;;;23.20;91.70;;;;;;4994640;28;20034;-76
2022/06/02 12:37:05;;;;;;;1.30;1.20;;;23.20;93.40;;;;;;5005896;28;20026;-76
2022/06/02 12:39:40;;;;;;;1.73;1.20;;;22.90;91.10;;;;;;5013094;28;20495;-77
2022/06/02 12:42:52;;;;;;;1.33;1.10;;;23.40;91.90;;;;;;5012393;28;20105;-77
2022/06/02 12:45:43;;;;;;;1.20;1.10;;;22.80;91.20;;;;;;4995319;28;20050;-77
2022/06/02 12:48:15;;;;;;;3.63;1.10;;;23.30;90.90;;;;;;4995361;28;20040;-77
2022/06/02 12:50:58;;;;;;;1.05;1.00;;;23.30;91.00;;;;;;5012166;28;20037;-77
2022/06/02 12:53:33;;;;;;;1.80;1.20;;;24.10;90.40;;;;;;5012548;28;20049;-76
2022/06/02 12:56:25;;;;;;;2.60;1.08;;;23.90;90.40;;;;;;4981356;28;20038;-76
2022/06/02 12:58:54;;;;;;;2.63;1.10;;;24.20;89.50;;;;;;5003098;28;20105;-76
2022/06/02 13:01:54;;;;;;;1.58;1.10;;;24.30;88.20;;;;;;5011266;28;20018;-76
2022/06/02 13:04:50;;;;;;;0.90;0.90;;;24.20;87.80;;;;;;4997925;28;20485;-77
2022/06/02 13:07:45;;;;;;;1.75;1.10;;;24.60;87.90;;;;;;4981457;28;20062;-72
2022/06/02 13:10:48;;;;;;;1.60;1.02;;;23.50;90.00;;;;;;5002209;28;20097;-76
2022/06/02 13:13:36;;;;;;;0.80;0.80;;;24.10;89.00;;;;;;5001097;28;20018;-76
2022/06/02 13:16:52;;;;;;;1.52;1.10;;;23.90;89.50;;;;;;5007057;28;20039;-77
2022/06/02 13:19:41;;;;;;;1.52;1.13;;;23.20;88.90;;;;;;4945021;29;20020;-77
2022/06/02 13:22:30;;;;;;;2.25;1.20;;;23.10;90.10;;;;;;4928334;29;20035;-77
2022/06/02 13:25:15;;;;;;;1.30;1.20;;;23.50;87.80;;;;;;4990848;28;20034;-75
2022/06/02 13:27:53;;;;;;;3.05;1.00;;;22.50;87.10;;;;;;5002096;28;20113;-76
2022/06/02 13:30:31;;;;;;;1.20;1.10;;;23.00;90.30;;;;;;5008469;28;20061;-76
2022/06/02 13:33:25;;;;;;;1.60;1.00;;;23.50;89.10;;;;;;4985860;28;20038;-77
2022/06/02 13:36:10;;;;;;;1.42;1.15;;;23.40;88.50;;;;;;5001205;28;20375;-76
2022/06/02 13:39:20;;;;;;;1.20;1.10;;;23.30;88.00;;;;;;4996894;28;20037;-77
2022/06/02 13:42:23;;;;;;;0.95;0.90;;;23.20;89.40;;;;;;5009457;28;20033;-76
2022/06/02 13:45:07;;;;;;;1.10;1.00;;;22.70;90.00;;;;;;5008558;28;20034;-74
2022/06/02 13:47:57;;;;;;;2.30;1.20;;;22.80;90.40;;;;;;5006304;28;20021;-74
2022/06/02 13:50:53;;;;;;;1.13;0.85;;;22.50;89.40;;;;;;4996710;28;20052;-77
2022/06/02 13:57:38;;;;;;;0.90;0.90;;;23.30;89.80;;;;;;5001877;28;20037;-77
2022/06/02 14:00:32;;;;;;;1.30;0.95;;;23.80;88.20;;;;;;4932359;28;20384;-77
2022/06/02 14:03:16;;;;;;;2.10;1.08;;;23.20;86.40;;;;;;4977076;28;20038;-76
2022/06/02 14:06:06;;;;;;;1.50;1.00;;;22.60;89.50;;;;;;5003372;28;20026;-77
2022/06/02 14:08:38;;;;;;;4.30;1.10;;;23.20;86.90;;;;;;5014904;28;20026;-77
2022/06/02 14:11:48;;;;;;;2.15;1.00;;;22.60;89.80;;;;;;4991523;28;20027;-77
2022/06/02 14:14:21;;;;;;;3.65;1.13;;;23.00;89.60;;;;;;4984924;28;20491;-76
2022/06/02 14:17:25;;;;;;;1.20;1.10;;;23.10;90.60;;;;;;5006387;28;20472;-77
2022/06/02 14:20:21;;;;;;;3.05;1.10;;;23.90;87.20;;;;;;4925910;29;20125;-77
2022/06/02 14:23:18;;;;;;;2.42;1.10;;;24.30;88.90;;;;;;5002897;28;20029;-77
2022/06/02 14:25:56;;;;;;;;;;;24.40;84.90;;;;;;5010715;28;20018;-78
2022/06/02 14:28:25;;;;;;;1.20;1.10;;;24.30;87.10;;;;;;4990884;28;19913;-77
2022/06/02 14:31:09;;;;;;;1.35;1.00;;;24.30;86.80;;;;;;4999770;28;20416;-77
2022/06/02 14:33:37;;;;;;;1.92;1.10;;;25.30;85.00;;;;;;4999127;28;20030;-78
2022/06/02 14:36:18;;;;;;;1.50;1.40;;;25.10;83.30;;;;;;5004713;28;20022;-78
2022/06/02 14:39:08;;;;;;;1.73;1.10;;;25.90;84.40;;;;;;5001647;28;20025;-78
2022/06/02 14:41:49;;;;;;;1.42;0.93;;;27.50;82.90;;;;;;5001102;28;20027;-78